createdAt,value
2022-08-10T00:01:17.650Z,21.20
2022-08-10T00:04:09.921Z,21.10
2022-08-10T00:07:13.458Z,21.10
2022-08-10T00:10:06.291Z,21.10
2022-08-10T00:12:58.591Z,21.00
2022-08-10T00:15:55.048Z,21.00
2022-08-10T00:18:47.770Z,21.00
2022-08-10T00:21:39.968Z,21.00
2022-08-10T00:24:32.172Z,20.90
2022-08-10T00:27:58.981Z,20.90
2022-08-10T00:30:37.898Z,20.90
2022-08-10T00:33:30.087Z,20.90
2022-08-10T00:36:22.273Z,20.90
2022-08-10T00:39:16.026Z,20.90
2022-08-10T00:42:11.055Z,20.90
2022-08-10T00:45:03.712Z,20.80
2022-08-10T00:47:56.016Z,20.70
2022-08-10T00:50:48.914Z,20.70
2022-08-10T00:53:41.398Z,20.70
2022-08-10T00:56:38.407Z,20.80
2022-08-10T00:59:58.575Z,20.80
2022-08-10T01:02:53.225Z,20.70
2022-08-10T01:06:15.291Z,20.70
2022-08-10T01:09:27.319Z,20.50
2022-08-10T01:12:41.036Z,20.50
2022-08-10T01:15:48.568Z,20.50
2022-08-10T01:18:43.881Z,20.50
2022-08-10T01:22:03.968Z,20.50
2022-08-10T01:25:05.126Z,20.40
2022-08-10T01:28:27.577Z,20.40
2022-08-10T01:31:24.127Z,20.30
2022-08-10T01:34:24.703Z,20.30
2022-08-10T01:37:21.193Z,20.20
2022-08-10T01:40:16.780Z,20.20
2022-08-10T01:43:10.964Z,20.10
2022-08-10T01:46:05.376Z,20.10
2022-08-10T01:49:00.756Z,20.00
2022-08-10T01:52:00.552Z,20.10
2022-08-10T01:54:56.089Z,20.00
2022-08-10T01:57:49.821Z,20.00
2022-08-10T02:00:45.626Z,20.00
2022-08-10T02:04:05.427Z,19.90
2022-08-10T02:06:53.612Z,19.90
2022-08-10T02:09:53.552Z,19.90
2022-08-10T02:12:47.210Z,20.00
2022-08-10T02:16:01.500Z,20.00
2022-08-10T02:18:56.330Z,20.10
2022-08-10T02:22:35.297Z,20.10
2022-08-10T02:25:06.109Z,20.10
2022-08-10T02:27:59.823Z,20.00
2022-08-10T02:30:54.599Z,20.00
2022-08-10T02:33:57.615Z,20.00
2022-08-10T02:36:56.023Z,19.90
2022-08-10T02:39:48.240Z,19.90
2022-08-10T02:45:16.001Z,19.90
2022-08-10T02:46:08.424Z,19.90
2022-08-10T02:49:05.417Z,19.90
2022-08-10T02:52:06.206Z,20.00
2022-08-10T02:55:17.556Z,19.90
2022-08-10T02:58:18.077Z,19.90
2022-08-10T03:01:18.680Z,19.70
2022-08-10T03:04:56.069Z,19.70
2022-08-10T03:08:00.788Z,19.70
2022-08-10T03:10:54.267Z,19.70
2022-08-10T03:13:59.532Z,19.80
2022-08-10T03:16:54.589Z,19.70
2022-08-10T03:20:34.314Z,19.70
2022-08-10T03:23:00.732Z,19.80
2022-08-10T03:25:56.188Z,19.80
2022-08-10T03:28:48.826Z,19.80
2022-08-10T03:31:41.174Z,19.80
2022-08-10T03:34:35.863Z,19.80
2022-08-10T03:37:28.166Z,19.90
2022-08-10T03:40:20.449Z,19.90
2022-08-10T03:43:16.951Z,19.80
2022-08-10T03:46:11.165Z,19.80
2022-08-10T03:49:05.893Z,19.80
2022-08-10T03:51:59.505Z,19.90
2022-08-10T03:54:52.735Z,20.00
2022-08-10T03:57:49.754Z,20.00
2022-08-10T04:00:43.342Z,20.30
2022-08-10T04:03:35.634Z,21.20
2022-08-10T04:06:27.990Z,22.10
2022-08-10T04:09:20.257Z,23.20
2022-08-10T04:12:12.395Z,24.30
2022-08-10T04:15:04.876Z,25.30
2022-08-10T04:18:03.843Z,26.40
2022-08-10T04:21:21.073Z,27.20
2022-08-10T04:24:26.790Z,28.10
2022-08-10T04:27:24.307Z,29.00
2022-08-10T04:30:16.645Z,29.90
2022-08-10T04:33:10.794Z,30.50
2022-08-10T04:36:05.519Z,31.10
2022-08-10T04:38:57.750Z,31.30
2022-08-10T04:41:50.037Z,32.00
2022-08-10T04:44:43.325Z,32.30
2022-08-10T04:47:51.255Z,32.20
2022-08-10T04:50:48.764Z,32.50
2022-08-10T04:54:05.317Z,32.80
2022-08-10T04:56:53.390Z,33.00
2022-08-10T04:59:45.614Z,32.70
2022-08-10T05:02:37.872Z,32.10
2022-08-10T05:05:30.086Z,31.60
2022-08-10T05:08:22.298Z,30.90
2022-08-10T05:11:23.767Z,30.50
2022-08-10T05:14:16.464Z,30.60
2022-08-10T05:17:08.740Z,30.90
2022-08-10T05:20:04.246Z,30.20
2022-08-10T05:22:58.152Z,29.80
2022-08-10T05:25:50.391Z,30.20
2022-08-10T05:28:42.571Z,30.10
2022-08-10T05:31:35.299Z,29.90
2022-08-10T05:34:30.064Z,29.70
2022-08-10T05:38:13.108Z,29.80
2022-08-10T05:40:37.704Z,30.00
2022-08-10T05:43:29.974Z,29.70
2022-08-10T05:46:22.350Z,28.60
2022-08-10T05:49:14.819Z,28.50
2022-08-10T05:52:07.361Z,28.30
2022-08-10T05:55:02.697Z,27.70
2022-08-10T05:57:55.599Z,27.90
2022-08-10T06:00:54.645Z,27.80
2022-08-10T06:03:53.171Z,27.70
2022-08-10T06:06:47.683Z,27.50
2022-08-10T06:09:58.555Z,28.00
2022-08-10T06:13:19.346Z,28.50
2022-08-10T06:16:25.721Z,29.00
2022-08-10T06:19:19.829Z,28.70
2022-08-10T06:22:12.440Z,28.10
2022-08-10T06:25:44.284Z,27.90
2022-08-10T06:28:20.105Z,27.10
2022-08-10T06:31:13.875Z,26.50
2022-08-10T06:34:09.784Z,27.70
2022-08-10T06:37:04.559Z,27.90
2022-08-10T06:39:56.959Z,27.10
2022-08-10T06:42:50.988Z,26.30
2022-08-10T06:46:06.971Z,26.10
2022-08-10T06:49:03.045Z,26.70
2022-08-10T06:51:57.672Z,27.10
2022-08-10T06:54:54.430Z,27.10
2022-08-10T06:57:59.824Z,26.80
2022-08-10T07:00:54.351Z,26.70
2022-08-10T07:04:01.368Z,25.90
2022-08-10T07:06:57.660Z,25.10
2022-08-10T07:09:51.826Z,24.80
2022-08-10T07:12:45.759Z,24.50
2022-08-10T07:16:00.089Z,24.50
2022-08-10T07:18:51.310Z,24.80
2022-08-10T07:21:46.183Z,25.00
2022-08-10T07:24:40.613Z,24.80
2022-08-10T07:27:58.992Z,24.70
2022-08-10T07:30:46.943Z,24.80
2022-08-10T07:33:41.063Z,25.30
2022-08-10T07:36:35.703Z,25.10
2022-08-10T07:39:57.987Z,25.50
2022-08-10T07:42:51.032Z,25.70
2022-08-10T07:45:43.481Z,25.30
2022-08-10T07:48:48.640Z,25.00
2022-08-10T07:51:42.389Z,24.70
2022-08-10T07:54:41.535Z,24.50
2022-08-10T07:57:40.039Z,24.50
2022-08-10T08:00:34.410Z,24.60
2022-08-10T08:03:29.464Z,24.50
2022-08-10T08:06:22.537Z,24.70
2022-08-10T08:09:15.119Z,25.20
2022-08-10T08:12:09.662Z,26.00
2022-08-10T08:16:20.785Z,26.30
2022-08-10T08:18:16.504Z,26.20
2022-08-10T08:24:20.778Z,25.80
2022-08-10T08:24:32.765Z,25.60
2022-08-10T08:27:28.508Z,25.50
2022-08-10T08:30:27.645Z,25.10
2022-08-10T08:33:42.619Z,25.40
2022-08-10T08:36:35.818Z,25.90
2022-08-10T08:39:28.867Z,26.50
2022-08-10T08:42:27.129Z,26.30
2022-08-10T08:45:58.716Z,26.10
2022-08-10T08:50:07.491Z,25.90
2022-08-10T08:53:01.030Z,26.50
2022-08-10T08:56:21.980Z,27.30
2022-08-10T08:59:35.393Z,27.40
2022-08-10T09:02:55.115Z,27.80
2022-08-10T09:05:59.388Z,28.10
2022-08-10T09:09:01.532Z,27.50
2022-08-10T09:12:18.278Z,27.00
2022-08-10T09:15:40.524Z,27.20
2022-08-10T09:18:46.683Z,27.50
2022-08-10T09:22:17.982Z,27.30
2022-08-10T09:25:24.704Z,27.10
2022-08-10T09:28:27.061Z,26.70
2022-08-10T09:31:23.475Z,26.70
2022-08-10T09:36:19.623Z,26.50
2022-08-10T09:38:02.300Z,26.60
2022-08-10T09:41:18.941Z,26.80
2022-08-10T09:44:29.437Z,26.90
2022-08-10T09:48:01.282Z,26.80
2022-08-10T09:54:43.995Z,26.50
2022-08-10T09:58:26.204Z,26.60
2022-08-10T10:02:03.893Z,27.10
2022-08-10T10:04:53.003Z,27.70
2022-08-10T10:07:53.706Z,27.70
2022-08-10T10:11:04.122Z,27.40
2022-08-10T10:14:20.178Z,27.30
2022-08-10T10:17:30.592Z,28.00
2022-08-10T10:20:40.820Z,28.60
2022-08-10T10:23:38.488Z,28.60
2022-08-10T10:27:26.745Z,29.00
2022-08-10T10:30:23.196Z,29.20
2022-08-10T10:33:43.816Z,29.20
2022-08-10T10:36:37.494Z,29.00
2022-08-10T10:39:31.446Z,29.40
2022-08-10T10:42:47.377Z,29.50
2022-08-10T10:45:57.631Z,29.80
2022-08-10T10:49:11.204Z,29.30
2022-08-10T10:52:19.268Z,28.70
2022-08-10T10:55:23.616Z,29.10
2022-08-10T10:58:28.477Z,28.90
2022-08-10T11:01:20.969Z,28.20
2022-08-10T11:04:25.346Z,28.00
2022-08-10T11:07:38.366Z,27.90
2022-08-10T11:10:46.241Z,27.80
2022-08-10T11:14:26.344Z,28.00
2022-08-10T11:17:40.600Z,27.60
2022-08-10T11:20:38.515Z,27.30
2022-08-10T11:24:47.665Z,27.50
2022-08-10T11:27:08.199Z,27.80
2022-08-10T11:30:13.826Z,27.90
2022-08-10T11:33:33.690Z,28.00
2022-08-10T11:36:59.478Z,28.10
2022-08-10T11:40:04.705Z,27.90
2022-08-10T11:43:08.850Z,27.60
2022-08-10T11:46:16.472Z,27.30
2022-08-10T11:49:32.449Z,27.90
2022-08-10T11:52:45.487Z,28.50
2022-08-10T11:55:37.795Z,28.50
2022-08-10T11:58:52.898Z,28.50
2022-08-10T12:01:47.035Z,28.40
2022-08-10T12:04:53.252Z,28.10
2022-08-10T12:10:04.278Z,28.20
2022-08-10T12:11:06.358Z,28.10
2022-08-10T12:14:21.263Z,28.20
2022-08-10T12:17:26.756Z,28.60
2022-08-10T12:20:35.914Z,28.60
2022-08-10T12:23:44.575Z,28.40
2022-08-10T12:26:45.072Z,28.10
2022-08-10T12:30:01.375Z,27.70
2022-08-10T12:33:18.166Z,27.60
2022-08-10T12:36:18.633Z,27.70
2022-08-10T12:39:21.915Z,27.70
2022-08-10T12:42:53.615Z,28.00
2022-08-10T12:46:06.772Z,28.00
2022-08-10T12:49:14.194Z,28.20
2022-08-10T12:52:19.650Z,28.20
2022-08-10T12:55:13.531Z,28.00
2022-08-10T12:58:58.169Z,27.90
2022-08-10T13:02:07.808Z,28.00
2022-08-10T13:04:43.240Z,28.20
2022-08-10T13:08:25.217Z,28.40
2022-08-10T13:11:04.244Z,28.10
2022-08-10T13:14:03.323Z,27.90
2022-08-10T13:16:58.454Z,27.80
2022-08-10T13:19:58.582Z,27.40
2022-08-10T13:22:58.388Z,27.20
2022-08-10T13:25:54.155Z,27.60
2022-08-10T13:28:49.613Z,27.80
2022-08-10T13:32:09.962Z,28.00
2022-08-10T13:35:00.944Z,28.10
2022-08-10T13:37:56.317Z,28.00
2022-08-10T13:40:49.861Z,28.20
2022-08-10T13:44:00.361Z,27.70
2022-08-10T13:46:54.641Z,27.60
2022-08-10T13:49:50.505Z,27.70
2022-08-10T13:52:49.845Z,27.80
2022-08-10T13:55:57.004Z,28.00
2022-08-10T13:58:53.571Z,28.20
2022-08-10T14:01:51.465Z,28.00
2022-08-10T14:04:47.979Z,27.90
2022-08-10T14:08:01.090Z,27.80
2022-08-10T14:11:09.222Z,27.80
2022-08-10T14:14:14.206Z,27.40
2022-08-10T14:17:08.271Z,27.40
2022-08-10T14:20:03.438Z,27.60
2022-08-10T14:23:10.048Z,27.70
2022-08-10T14:26:08.983Z,27.70
2022-08-10T14:29:10.831Z,27.50
2022-08-10T14:32:14.058Z,27.20
2022-08-10T14:36:19.052Z,27.10
2022-08-10T14:38:23.937Z,27.30
2022-08-10T14:42:01.406Z,27.40
2022-08-10T14:44:43.229Z,27.50
2022-08-10T14:48:03.359Z,27.60
2022-08-10T14:50:55.966Z,27.50
2022-08-10T14:53:54.326Z,27.50
2022-08-10T14:56:48.847Z,27.50
2022-08-10T15:00:23.020Z,27.40
2022-08-10T15:02:59.576Z,27.50
2022-08-10T15:05:54.410Z,27.70
2022-08-10T15:08:52.211Z,27.60
2022-08-10T15:12:14.446Z,27.50
2022-08-10T15:15:01.148Z,27.50
2022-08-10T15:17:57.822Z,27.40
2022-08-10T15:21:17.171Z,27.30
2022-08-10T15:24:36.991Z,27.30
2022-08-10T15:27:35.286Z,27.20
2022-08-10T15:30:50.690Z,27.40
2022-08-10T15:34:07.228Z,27.20
2022-08-10T15:37:40.109Z,27.20
2022-08-10T15:40:30.980Z,27.20
2022-08-10T15:43:34.400Z,27.20
2022-08-10T15:46:57.690Z,27.10
2022-08-10T15:50:02.941Z,27.20
2022-08-10T15:53:07.043Z,27.20
2022-08-10T15:56:16.630Z,27.00
2022-08-10T15:59:31.222Z,27.00
2022-08-10T16:02:27.630Z,27.00
2022-08-10T16:06:00.520Z,26.90
2022-08-10T16:08:56.058Z,26.90
2022-08-10T16:12:16.773Z,27.00
2022-08-10T16:15:18.285Z,26.80
2022-08-10T16:18:14.374Z,26.80
2022-08-10T16:21:27.581Z,26.70
2022-08-10T16:24:20.282Z,26.70
2022-08-10T16:27:12.883Z,26.80
2022-08-10T16:30:06.090Z,26.70
2022-08-10T16:32:59.996Z,26.70
2022-08-10T16:35:57.479Z,26.70
2022-08-10T16:38:50.682Z,26.70
2022-08-10T16:42:04.006Z,26.60
2022-08-10T16:45:22.135Z,26.60
2022-08-10T16:48:48.378Z,26.50
2022-08-10T16:51:31.236Z,26.40
2022-08-10T16:54:27.394Z,26.40
2022-08-10T16:57:20.896Z,26.30
2022-08-10T17:00:13.995Z,26.20
2022-08-10T17:03:22.870Z,26.30
2022-08-10T17:06:33.513Z,26.30
2022-08-10T17:09:35.407Z,26.20
2022-08-10T17:12:28.566Z,26.10
2022-08-10T17:15:27.110Z,26.00
2022-08-10T17:18:29.288Z,25.90
2022-08-10T17:21:25.750Z,25.90
2022-08-10T17:24:21.579Z,25.90
2022-08-10T17:28:03.843Z,25.90
2022-08-10T17:30:35.362Z,25.70
2022-08-10T17:33:46.092Z,25.70
2022-08-10T17:36:41.552Z,25.60
2022-08-10T17:39:43.313Z,25.60
2022-08-10T17:42:37.415Z,25.60
2022-08-10T17:45:47.767Z,25.40
2022-08-10T17:48:42.901Z,25.30
2022-08-10T17:51:37.301Z,25.50
2022-08-10T17:54:47.174Z,25.40
2022-08-10T17:57:40.974Z,25.30
2022-08-10T18:00:39.687Z,25.30
2022-08-10T18:03:36.161Z,25.30
2022-08-10T18:06:29.832Z,25.20
2022-08-10T18:09:35.312Z,25.10
2022-08-10T18:12:39.581Z,25.00
2022-08-10T18:15:36.157Z,24.90
2022-08-10T18:18:30.442Z,24.90
2022-08-10T18:21:24.470Z,24.80
2022-08-10T18:24:21.137Z,24.70
2022-08-10T18:27:15.162Z,24.60
2022-08-10T18:30:09.675Z,24.60
2022-08-10T18:33:03.111Z,24.50
2022-08-10T18:35:57.141Z,24.40
2022-08-10T18:38:53.375Z,24.30
2022-08-10T18:42:00.709Z,24.20
2022-08-10T18:45:09.814Z,24.10
2022-08-10T18:48:18.739Z,24.10
2022-08-10T18:51:13.399Z,24.00
2022-08-10T18:54:39.428Z,24.10
2022-08-10T18:57:46.209Z,23.90
2022-08-10T19:00:58.850Z,23.90
2022-08-10T19:03:59.589Z,23.90
2022-08-10T19:07:23.997Z,24.00
2022-08-10T19:10:34.682Z,23.90
2022-08-10T19:13:36.828Z,23.80
2022-08-10T19:16:44.013Z,23.70
2022-08-10T19:19:51.128Z,23.60
2022-08-10T19:22:55.649Z,23.50
2022-08-10T19:26:39.427Z,23.60
2022-08-10T19:30:08.342Z,23.60
2022-08-10T19:33:19.824Z,23.50
2022-08-10T19:36:41.780Z,23.30
2022-08-10T19:39:50.435Z,23.40
2022-08-10T19:43:09.033Z,23.30
2022-08-10T19:46:38.394Z,23.30
2022-08-10T19:49:50.207Z,23.20
2022-08-10T19:53:12.180Z,23.20
2022-08-10T19:56:47.782Z,23.20
2022-08-10T20:00:23.002Z,23.20
2022-08-10T20:03:43.430Z,23.20
2022-08-10T20:06:57.231Z,23.10
2022-08-10T20:10:00.279Z,23.10
2022-08-10T20:13:29.524Z,23.10
2022-08-10T20:16:29.838Z,22.90
2022-08-10T20:19:52.736Z,23.00
2022-08-10T20:22:54.394Z,22.90
2022-08-10T20:25:59.017Z,22.90
2022-08-10T20:29:16.482Z,22.90
2022-08-10T20:32:25.051Z,22.90
2022-08-10T20:35:26.417Z,22.90
2022-08-10T20:38:27.309Z,22.90
2022-08-10T20:41:49.218Z,22.90
2022-08-10T20:44:57.971Z,22.90
2022-08-10T20:48:26.311Z,22.80
2022-08-10T20:51:59.199Z,22.80
2022-08-10T20:54:57.994Z,22.80
2022-08-10T20:58:24.967Z,22.70
2022-08-10T21:01:25.109Z,22.70
2022-08-10T21:04:50.544Z,22.70
2022-08-10T21:08:05.079Z,22.80
2022-08-10T21:11:08.094Z,22.70
2022-08-10T21:14:31.769Z,22.70
2022-08-10T21:17:37.254Z,22.60
2022-08-10T21:20:30.830Z,22.60
2022-08-10T21:23:31.588Z,22.50
2022-08-10T21:26:41.543Z,22.50
2022-08-10T21:30:08.498Z,22.40
2022-08-10T21:33:22.420Z,22.40
2022-08-10T21:36:34.830Z,22.40
2022-08-10T21:39:57.682Z,22.30
2022-08-10T21:43:44.649Z,22.30
2022-08-10T21:47:02.960Z,22.10
2022-08-10T21:50:13.810Z,22.10
2022-08-10T21:53:44.633Z,22.00
2022-08-10T21:57:41.274Z,21.90
2022-08-10T22:01:01.818Z,22.00
2022-08-10T22:04:14.827Z,21.90
2022-08-10T22:07:33.529Z,21.80
2022-08-10T22:10:47.683Z,21.70
2022-08-10T22:14:05.591Z,21.70
2022-08-10T22:17:59.920Z,21.70
2022-08-10T22:20:55.589Z,21.60
2022-08-10T22:24:41.410Z,21.60
2022-08-10T22:27:54.875Z,21.60
2022-08-10T22:31:32.300Z,21.50
2022-08-10T22:35:11.782Z,21.40
2022-08-10T22:38:55.512Z,21.40
2022-08-10T22:42:20.588Z,21.40
2022-08-10T22:45:34.422Z,21.40
2022-08-10T22:48:45.051Z,21.40
2022-08-10T22:52:01.872Z,21.40
2022-08-10T22:55:20.134Z,21.40
2022-08-10T22:58:34.901Z,21.30
2022-08-10T23:02:08.002Z,21.30
2022-08-10T23:05:04.822Z,21.20
2022-08-10T23:08:03.583Z,21.20
2022-08-10T23:10:57.193Z,21.20
2022-08-10T23:14:19.486Z,21.20
2022-08-10T23:18:00.656Z,21.10
2022-08-10T23:20:51.077Z,21.20
2022-08-10T23:23:46.008Z,21.10
2022-08-10T23:26:39.032Z,21.20
2022-08-10T23:29:37.595Z,21.10
2022-08-10T23:32:37.750Z,21.10
2022-08-10T23:36:31.576Z,21.00
2022-08-10T23:39:27.342Z,21.00
2022-08-10T23:42:21.350Z,21.00
2022-08-10T23:45:21.887Z,21.00
2022-08-10T23:48:19.976Z,21.00
2022-08-10T23:51:16.089Z,21.00
2022-08-10T23:54:13.946Z,20.90
2022-08-10T23:57:06.308Z,20.90
